Flight Track Log - Related Links

Times and Time Zones

All times are in EST time to prevent confusion due to time zone crossing. See the OPT438 flight status page for this flight to view local times or setup timezone preferences in your user account.

Time Position Orientation Groundspeed Altitude Reporting Facility
EST Latitude Longitude Course Direction KTS MPH feet Rate Location/Type
Sun 12:47:03 PM 26.7442 -79.9972 336° Northwest 268 308 6,300  Level Miami Center
Sun 12:48:03 PM 26.8144 -80.0339 335° Northwest 269 310 9,000 1,850 Climbing Miami Center
Sun 12:49:03 PM 26.8314 -80.1228 282° West 260 299 10,000 1,050 Climbing Miami Center
Sun 12:50:03 PM 26.8458 -80.2139 280° West 286 329 11,100 1,200 Climbing Miami Center
Sun 12:51:00 PM 26.8732 -80.3283 336° Northwest  Level FlightAware Approximate
Sun 12:51:03 PM 26.8586 -80.2958 280° West 299 344 12,400  Level Miami Center
Sun 12:52:03 PM 26.9158 -80.3533 318° Northwest 274 315 13,600 1,200 Climbing Miami Center
Sun 12:53:03 PM 27.0067 -80.3958 337° Northwest 286 329 14,800 1,300 Climbing Miami Center
Sun 12:54:03 PM 27.0892 -80.4356 337° Northwest 311 358 16,200 1,400 Climbing Miami Center
Sun 12:55:03 PM 27.1739 -80.4733 338° Northwest 329 379 17,600 1,300 Climbing Miami Center
Sun 12:56:03 PM 27.2544 -80.5108 338° Northwest 334 384 18,800 1,300 Climbing Miami Center
Sun 12:57:03 PM 27.3453 -80.5511 339° North 334 384 20,200 1,300 Climbing Miami Center
Sun 12:58:03 PM 27.4361 -80.5914 339° North 339 390 21,400 1,100 Climbing Miami Center
Sun 12:59:03 PM 27.5289 -80.6342 338° Northwest 349 402 22,400 950 Climbing Miami Center
Sun 01:00:03 PM 27.6258 -80.6797 337° Northwest 359 413 23,300 950 Climbing Miami Center
Sun 01:01:03 PM 27.7228 -80.7228 339° North 370 426 24,300 950 Climbing Miami Center
Sun 01:02:03 PM 27.8236 -80.7708 337° Northwest 375 432 25,200 950 Climbing Miami Center
Sun 01:03:03 PM 27.9372 -80.8192 339° North 386 444 26,200 1,000 Climbing Miami Center
Sun 01:04:03 PM 28.0361 -80.8675 337° Northwest 391 450 27,200 950 Climbing Miami Center
Sun 01:05:03 PM 28.1369 -80.9111 339° North 391 450 28,100 950 Climbing Miami Center
Sun 01:06:03 PM 28.2381 -80.9594 337° Northwest 391 450 29,100 950 Climbing Miami Center
Sun 01:07:03 PM 28.3389 -81.0056 338° Northwest 391 450 30,000 950 Climbing Miami Center
Sun 01:08:03 PM 28.4378 -81.0517 338° Northwest 391 450 31,000 950 Climbing Miami Center
Sun 01:09:03 PM 28.5386 -81.0981 338° Northwest 391 450 31,900 900 Climbing Miami Center
Sun 01:10:03 PM 28.6353 -81.1419 338° Northwest 391 450 32,800 913 Climbing Miami Center
Sun 01:10:35 PM 28.6894 -81.1744 332° Northwest 384 442 33,300 913 Climbing Jacksonville Center
Sun 01:11:35 PM 28.7775 -81.2108 340° North 374 430 34,200 950 Climbing Jacksonville Center
Sun 01:12:35 PM 28.8742 -81.2567 337° Northwest 374 430 35,200 950 Climbing Jacksonville Center
Sun 01:13:35 PM 28.9686 -81.3000 338° Northwest 374 430 36,100 950 Climbing Jacksonville Center
Sun 01:14:35 PM 29.0653 -81.3461 337° Northwest 374 430 37,100 900 Climbing Jacksonville Center
Sun 01:15:35 PM 29.1575 -81.3875 339° North 369 425 37,900 750 Climbing Jacksonville Center
Sun 01:16:35 PM 29.2478 -81.4314 337° Northwest 363 418 38,600 550 Climbing Jacksonville Center
Sun 01:17:35 PM 29.3422 -81.4753 338° Northwest 358 412 39,000 200 Climbing Jacksonville Center
Sun 01:18:35 PM 29.4367 -81.5214 337° Northwest 358 412 39,000  Level Jacksonville Center
Sun 01:19:35 PM 29.5372 -81.5703 337° Northwest 368 423 39,000  Level Jacksonville Center
Sun 01:20:35 PM 29.6381 -81.6167 338° Northwest 378 435 39,000  Level Jacksonville Center
Sun 01:21:35 PM 29.7386 -81.6656 337° Northwest 383 441 39,000  Level Jacksonville Center
Sun 01:22:35 PM 29.8372 -81.7144 337° Northwest 383 441 39,000  Level Jacksonville Center
Sun 01:23:35 PM 29.9400 -81.7611 339° North 383 441 39,000  Level Jacksonville Center
Sun 01:24:35 PM 30.0511 -81.8078 340° North 383 441 39,000  Level Jacksonville Center
Sun 01:25:35 PM 30.1497 -81.8597 336° Northwest 383 441 39,000  Level Jacksonville Center
Sun 01:26:35 PM 30.2481 -81.9019 340° North 383 441 39,000  Level Jacksonville Center
Sun 01:27:35 PM 30.3486 -81.9442 340° North 383 441 39,000  Level Jacksonville Center
Sun 01:28:35 PM 30.4469 -81.9889 339° North 383 441 39,000  Level Jacksonville Center
Sun 01:29:35 PM 30.5475 -82.0292 341° North 383 441 39,000  Level Jacksonville Center
Sun 01:30:35 PM 30.6481 -82.0789 337° Northwest 383 441 39,000  Level Jacksonville Center
Sun 01:31:35 PM 30.7464 -82.1192 341° North 378 435 39,000  Level Jacksonville Center
Sun 01:32:35 PM 30.8450 -82.1642 339° North 373 429 39,000  Level Jacksonville Center
Sun 01:33:35 PM 30.9453 -82.2047 341° North 373 429 39,000  Level Jacksonville Center
Sun 01:34:35 PM 31.0436 -82.2500 338° Northwest 373 429 39,000 -50 Level Jacksonville Center
Sun 01:35:35 PM 31.1419 -82.2931 339° North 373 429 38,900  Descending Jacksonville Center
Sun 01:36:35 PM 31.2425 -82.3336 341° North 373 429 39,000 50 Climbing Jacksonville Center
Sun 01:37:35 PM 31.3386 -82.3769 339° North 373 429 39,000  Level Jacksonville Center
Sun 01:38:35 PM 31.4264 -82.4106 342° North 373 429 39,000  Level Jacksonville Center
Sun 01:39:35 PM 31.5247 -82.4514 341° North 367 422 39,000  Level Jacksonville Center
Sun 01:41:23 PM 31.6997 -82.5303 339° North 376 433 39,000  Level Atlanta Center
Sun 01:42:23 PM 31.7983 -82.5753 339° North 376 433 39,000  Level Atlanta Center
Sun 01:43:23 PM 31.8950 -82.6178 340° North 371 427 39,000  Level Atlanta Center
Sun 01:44:23 PM 31.9894 -82.6603 339° North 371 427 39,000 -150 Level Atlanta Center
Sun 01:45:23 PM 32.0836 -82.7006 340° North 371 427 38,700 -400 Descending Atlanta Center
Sun 01:46:23 PM 32.1803 -82.7431 340° North 371 427 38,200 -350 Descending Atlanta Center
Sun 01:47:23 PM 32.2767 -82.7858 339° North 371 427 38,000 -100 Descending Atlanta Center
Sun 01:48:23 PM 32.3731 -82.8289 339° North 371 427 38,000  Level Atlanta Center
Sun 01:49:23 PM 32.4675 -82.8719 339° North 371 427 38,000  Level Atlanta Center
Sun 01:50:23 PM 32.5700 -82.9172 340° North 366 421 38,000  Level Atlanta Center
Sun 01:51:23 PM 32.6581 -82.9581 339° North 366 421 38,000  Level Atlanta Center
Sun 01:52:23 PM 32.7525 -82.9989 340° North 366 421 38,000  Level Atlanta Center
Sun 01:53:23 PM 32.8508 -83.0447 339° North 354 407 38,000  Level Atlanta Center
Sun 01:54:23 PM 32.9472 -83.0883 339° North 354 407 38,000  Level Atlanta Center
Sun 01:55:23 PM 33.0417 -83.1319 339° North 354 407 38,000  Level Atlanta Center
Sun 01:56:23 PM 33.1253 -83.1731 338° Northwest 354 407 38,000  Level Atlanta Center
Sun 01:57:23 PM 33.2194 -83.2169 339° North 354 407 38,000  Level Atlanta Center
Sun 01:58:23 PM 33.3139 -83.2583 340° North 354 407 38,000  Level Atlanta Center
Sun 01:59:23 PM 33.4100 -83.2997 340° North 362 417 38,000  Level Atlanta Center
Sun 02:00:23 PM 33.5064 -83.3436 339° North 367 422 38,000  Level Atlanta Center
Sun 02:01:23 PM 33.6025 -83.3878 339° North 367 422 38,000  Level Atlanta Center
Sun 02:02:23 PM 33.7050 -83.4369 338° Northwest 372 428 38,000  Level Atlanta Center
Sun 02:03:23 PM 33.8014 -83.4789 340° North 372 428 38,000  Level Atlanta Center
Sun 02:04:23 PM 33.8975 -83.5208 340° North 372 428 38,000  Level Atlanta Center
Sun 02:05:23 PM 33.9936 -83.5678 338° Northwest 367 422 38,000  Level Atlanta Center
Sun 02:06:23 PM 34.0900 -83.6100 340° North 372 428 38,000  Level Atlanta Center
Sun 02:07:23 PM 34.1819 -83.6519 339° North 372 428 38,000  Level Atlanta Center
Sun 02:08:23 PM 34.2781 -83.6969 339° North 372 428 38,000  Level Atlanta Center
Sun 02:09:23 PM 34.3719 -83.7394 340° North 372 428 38,000  Level Atlanta Center
Sun 02:10:23 PM 34.4681 -83.7817 340° North 366 421 38,000  Level Atlanta Center
Sun 02:11:23 PM 34.5600 -83.8294 337° Northwest 366 421 38,000  Level Atlanta Center
Sun 02:12:23 PM 34.6561 -83.8722 340° North 361 415 38,000  Level Atlanta Center
Sun 02:13:23 PM 34.7375 -83.9150 337° Northwest 356 410 38,000  Level Atlanta Center
Sun 02:14:23 PM 34.8294 -83.9578 339° North 356 410 38,000  Level Atlanta Center
Sun 02:15:23 PM 34.9233 -84.0033 338° Northwest 356 410 38,000  Level Atlanta Center
Sun 02:16:23 PM 35.0153 -84.0464 339° North 356 410 38,000  Level Atlanta Center
Sun 02:17:23 PM 35.1069 -84.0894 339° North 356 410 38,000  Level Atlanta Center
Sun 02:18:23 PM 35.1986 -84.1353 338° Northwest 356 410 38,000  Level Atlanta Center
Sun 02:19:23 PM 35.2883 -84.1761 340° North 356 410 38,000  Level Atlanta Center
Sun 02:20:23 PM 35.3781 -84.2197 338° Northwest 356 410 38,000  Level Atlanta Center
Sun 02:21:23 PM 35.4678 -84.2631 339° North 351 404 38,000  Level Atlanta Center
Sun 02:22:23 PM 35.5572 -84.3067 338° Northwest 351 404 38,000  Level Atlanta Center
Sun 02:23:23 PM 35.6450 -84.3481 339° North 346 398 38,000  Level Atlanta Center
Sun 02:24:23 PM 35.7325 -84.3892 339° North 346 398 38,000  Level Atlanta Center
Sun 02:25:23 PM 35.8219 -84.4306 339° North 341 392 38,000  Level Atlanta Center
Sun 02:27:26 PM 35.9969 -84.5175 338° Northwest 342 394 38,000  Level Indianapolis Center
Sun 02:28:27 PM 36.1033 -84.5689 339° North 343 395 38,000  Level Indianapolis Center
Sun 02:29:29 PM 36.1919 -84.6122 338° Northwest 343 395 38,000  Level Indianapolis Center
Sun 02:30:30 PM 36.2792 -84.6561 338° Northwest 343 395 38,000  Level Indianapolis Center
Sun 02:31:31 PM 36.3669 -84.7000 338° Northwest 343 395 38,000  Level Indianapolis Center
Sun 02:32:33 PM 36.4544 -84.7419 339° North 341 392 38,000  Level Indianapolis Center
Sun 02:33:35 PM 36.5397 -84.7858 338° Northwest 338 389 38,000  Level Indianapolis Center
Sun 02:34:36 PM 36.6253 -84.8311 337° Northwest 336 387 38,000  Level Indianapolis Center
Sun 02:35:38 PM 36.7278 -84.8856 337° Northwest 336 387 38,000  Level Indianapolis Center
Sun 02:36:39 PM 36.8122 -84.9314 337° Northwest 335 386 38,000  Level Indianapolis Center
Sun 02:37:41 PM 36.8975 -84.9769 337° Northwest 335 386 38,000  Level Indianapolis Center
Sun 02:38:43 PM 36.9828 -85.0247 336° Northwest 335 386 38,000  Level Indianapolis Center
Sun 02:39:44 PM 37.0753 -85.0736 337° Northwest 334 384 38,000  Level Indianapolis Center
Sun 02:40:46 PM 37.1603 -85.1206 336° Northwest 334 384 38,000  Level Indianapolis Center
Sun 02:41:48 PM 37.2464 -85.1658 337° Northwest 334 384 38,000  Level Indianapolis Center
Sun 02:42:49 PM 37.3314 -85.2128 336° Northwest 334 384 38,000  Level Indianapolis Center
Sun 02:43:51 PM 37.4161 -85.2594 336° Northwest 334 384 38,000  Level Indianapolis Center
Sun 02:44:52 PM 37.5011 -85.3053 337° Northwest 333 383 38,000  Level Indianapolis Center
Sun 02:45:54 PM 37.5856 -85.3522 336° Northwest 333 383 38,000  Level Indianapolis Center
Sun 02:46:56 PM 37.6886 -85.4067 337° Northwest 339 390 38,000  Level Indianapolis Center
Sun 02:47:57 PM 37.7728 -85.4519 337° Northwest 337 388 38,000  Level Indianapolis Center
Sun 02:48:59 PM 37.8433 -85.4931 335° Northwest 331 381 38,000 -97 Level Indianapolis Center
Sun 02:50:01 PM 37.9414 -85.5506 335° Northwest 328 377 37,800 -732 Descending Indianapolis Center
Sun 02:51:02 PM 38.0258 -85.5975 336° Northwest 327 376 36,500 -1,366 Descending Indianapolis Center
Sun 02:52:04 PM 38.1117 -85.6431 337° Northwest 328 377 35,000 -1,210 Descending Indianapolis Center
Sun 02:53:06 PM 38.1914 -85.6889 336° Northwest 323 372 34,000 -976 Descending Indianapolis Center
Sun 02:54:07 PM 38.2742 -85.7356 336° Northwest 322 371 33,000 -976 Descending Indianapolis Center
Sun 02:55:09 PM 38.3575 -85.7825 336° Northwest 323 372 32,000 -484 Descending Indianapolis Center
Sun 02:56:11 PM 38.4417 -85.8303 336° Northwest 326 375 32,000  Level Indianapolis Center
Sun 02:57:12 PM 38.5242 -85.8786 335° Northwest 326 375 32,000  Level Indianapolis Center
Sun 02:58:14 PM 38.6253 -85.9336 337° Northwest 326 375 32,000 -389 Level Indianapolis Center
Sun 03:00:17 PM 38.7908 -86.0292 336° Northwest 326 375 30,800 -649 Descending Indianapolis Center
Sun 03:01:19 PM 38.8753 -86.0781 336° Northwest 328 377 30,000 -677 Descending Indianapolis Center
Sun 03:02:21 PM 38.9575 -86.1247 336° Northwest 334 384 29,400 -780 Descending Indianapolis Center
Sun 03:03:22 PM 39.0467 -86.1761 336° Northwest 347 399 28,400 -683 Descending Indianapolis Center
Sun 03:04:24 PM 39.1517 -86.2378 336° Northwest 347 399 28,000 -194 Descending Indianapolis Center
Sun 03:05:26 PM 39.2408 -86.2881 336° Northwest 347 399 28,000 -97 Level Indianapolis Center
Sun 03:06:28 PM 39.3300 -86.3394 336° Northwest 348 400 27,800 -585 Descending Indianapolis Center
Sun 03:07:29 PM 39.4203 -86.3925 336° Northwest 351 404 26,800 -878 Descending Indianapolis Center
Sun 03:08:31 PM 39.5097 -86.4450 336° Northwest 352 405 26,000 -387 Descending Indianapolis Center
Sun 03:09:33 PM 39.6006 -86.4989 335° Northwest 352 405 26,000  Level Indianapolis Center
Sun 03:10:35 PM 39.6883 -86.5519 335° Northwest 351 404 26,000  Level Indianapolis Center
Sun 03:11:36 PM 39.7747 -86.6017 336° Northwest 340 391 26,000  Level Indianapolis Center
Sun 03:12:38 PM 39.8633 -86.6550 335° Northwest 343 395 26,000 -435 Level Indianapolis Center
Sun 03:13:40 PM 39.9711 -86.7189 336° Northwest 347 399 25,100 -1,210 Descending Indianapolis Center
Sun 03:14:42 PM 40.0667 -86.7750 336° Northwest 369 425 23,500 -1,651 Descending Indianapolis Center
Sun 03:15:29 PM 40.1383 -86.8172 336° Northwest 361 415 22,100 -1,486 Descending Chicago Center
Sun 03:16:31 PM 40.2222 -86.8675 335° Northwest 336 387 20,800 -1,258 Descending Chicago Center
Sun 03:17:33 PM 40.3056 -86.9181 335° Northwest 333 383 19,500 -1,306 Descending Chicago Center
Sun 03:18:35 PM 40.3894 -86.9689 335° Northwest 331 381 18,100 -1,268 Descending Chicago Center
Sun 03:19:36 PM 40.4717 -87.0172 336° Northwest 327 376 16,900 -1,171 Descending Chicago Center
Sun 03:20:38 PM 40.5494 -87.0647 335° Northwest 312 359 15,700 -1,161 Descending Chicago Center
Sun 03:21:40 PM 40.6356 -87.1094 338° Northwest 307 353 14,500 -1,171 Descending Chicago Center
Sun 03:22:41 PM 40.7139 -87.1503 338° Northwest 305 351 13,300 -1,317 Descending Chicago Center
Sun 03:23:43 PM 40.8133 -87.2028 338° Northwest 319 367 11,800 -1,403 Descending Chicago Center
Sun 03:24:45 PM 40.8925 -87.2453 338° Northwest 311 358 10,400 -878 Descending Chicago Center
Sun 03:25:46 PM 40.9706 -87.2847 339° North 302 348 10,000 -293 Descending Chicago Center
Sun 03:26:48 PM 41.0450 -87.3231 339° North 291 335 9,800 -823 Descending Chicago Center
Sun 03:27:50 PM 41.1100 -87.3228 360° North 242 278 8,300 -1,452 Descending Chicago Center
Sun 03:28:52 PM 41.1800 -87.3161 North 249 287 6,800 -1,610 Descending Chicago Center
Sun 03:29:53 PM 41.2633 -87.3086 North 258 297 5,000 -1,366 Descending Chicago Center
Sun 03:30:55 PM 41.3311 -87.3008 North 253 291 4,000 -484 Descending Chicago Center
Sun 03:31:57 PM 41.3961 -87.2936 North 245 282 4,000  Level Chicago Center
Sun 03:32:58 PM 41.4617 -87.2872 North 240 276 4,000  Level Chicago Center
Sun 03:34:00 PM 41.5267 -87.2808 North 238 274 4,000  Level Chicago Center
Sun 03:35:01 PM 41.5914 -87.2922 353° North 240 276 4,000  Level Chicago Center
Sun 03:36:03 PM 41.6531 -87.3236 339° North 240 276 4,000 -484 Level Chicago Center
Sun 03:37:05 PM 41.7272 -87.3603 340° North 239 275 3,000 -488 Descending Chicago Center
Sun 03:38:06 PM 41.7864 -87.3911 339° North 235 270 3,000  Level Chicago Center
Sun 03:39:08 PM 41.8461 -87.4161 343° North 231 266 3,000  Level Chicago Center
Sun 03:40:10 PM 41.9022 -87.4522 334° Northwest 227 261 3,000  Level Chicago Center
Sun 03:41:11 PM 41.9581 -87.4911 333° Northwest 227 261 3,000  Level Chicago Center
Sun 03:42:13 PM 42.0117 -87.5344 329° Northwest 226 260 3,000  Level Chicago Center
Sun 03:43:14 PM 42.0619 -87.5883 321° Northwest 228 262 3,000 -98 Level Chicago Center
Sun 03:44:16 PM 42.1225 -87.6547 321° Northwest 232 267 2,800 -244 Descending Chicago Center
Sun 03:45:17 PM 42.1731 -87.7094 321° Northwest 233 268 2,500 -146 Descending Chicago Center
Sun 03:46:19 PM 42.2225 -87.7625 322° Northwest 232 267 2,500  Level Chicago Center
Sun 03:47:21 PM 42.2708 -87.8139 322° Northwest 228 262 2,500  Level Chicago Center
Sun 03:48:22 PM 42.2869 -87.8900 286° West 222 255 2,500 -49 Level Chicago Center
Sun 03:49:24 PM 42.2842 -87.9603 267° West 223 257 2,400  Descending Chicago Center
Sun 03:50:25 PM 42.2369 -87.9703 189° South 217 250 2,500 -146 Climbing Chicago Center
Sun 03:51:27 PM 42.1856 -87.9481 162° South 181 208 2,100 -242 Descending Chicago Center
Sun 03:52:29 PM 42.1397 -87.9475 179° South 178 205 2,000 -97 Descending Chicago Center

Login

Don't have an account? Register now (free) for customized features, flight alerts, and more!